sensor_id;sensor_type;location;lat;lon;timestamp;pressure;altitude;pressure_sealevel;temperature;humidity
27729;BME280;15126;42.186;24.340;2023-01-27T00:00:27;98597.03;;;2.24;99.41
27729;BME280;15126;42.186;24.340;2023-01-27T00:02:54;98601.75;;;2.24;99.48
27729;BME280;15126;42.186;24.340;2023-01-27T00:05:21;98588.38;;;2.26;99.06
27729;BME280;15126;42.186;24.340;2023-01-27T00:07:48;98596.66;;;2.29;98.95
27729;BME280;15126;42.186;24.340;2023-01-27T00:10:16;98609.63;;;2.32;98.93
27729;BME280;15126;42.186;24.340;2023-01-27T00:12:46;98612.75;;;2.27;99.03
27729;BME280;15126;42.186;24.340;2023-01-27T00:15:31;98613.16;;;2.29;99.15
27729;BME280;15126;42.186;24.340;2023-01-27T00:17:59;98622.56;;;2.32;99.48
27729;BME280;15126;42.186;24.340;2023-01-27T00:20:26;98623.38;;;2.32;99.23
27729;BME280;15126;42.186;24.340;2023-01-27T00:23:14;98626.13;;;2.36;98.76
27729;BME280;15126;42.186;24.340;2023-01-27T00:25:59;98636.31;;;2.32;98.89
27729;BME280;15126;42.186;24.340;2023-01-27T00:28:32;98632.00;;;2.34;98.43
27729;BME280;15126;42.186;24.340;2023-01-27T00:30:59;98629.25;;;2.34;98.54
27729;BME280;15126;42.186;24.340;2023-01-27T00:33:26;98624.94;;;2.40;98.43
27729;BME280;15126;42.186;24.340;2023-01-27T00:35:57;98622.59;;;2.35;98.10
27729;BME280;15126;42.186;24.340;2023-01-27T00:38:24;98619.81;;;2.32;98.08
27729;BME280;15126;42.186;24.340;2023-01-27T00:40:51;98617.47;;;2.34;98.87
27729;BME280;15126;42.186;24.340;2023-01-27T00:43:36;98613.16;;;2.29;99.05
27729;BME280;15126;42.186;24.340;2023-01-27T00:46:03;98612.38;;;2.32;98.48
27729;BME280;15126;42.186;24.340;2023-01-27T00:48:30;98612.75;;;2.34;98.92
27729;BME280;15126;42.186;24.340;2023-01-27T00:50:57;98596.25;;;2.31;98.69
27729;BME280;15126;42.186;24.340;2023-01-27T00:53:24;98585.66;;;2.33;98.70
27729;BME280;15126;42.186;24.340;2023-01-27T00:55:51;98599.00;;;2.38;98.79
27729;BME280;15126;42.186;24.340;2023-01-27T00:58:18;98583.69;;;2.33;98.66
27729;BME280;15126;42.186;24.340;2023-01-27T01:00:48;98563.22;;;2.34;99.11
27729;BME280;15126;42.186;24.340;2023-01-27T01:03:14;98542.41;;;2.26;98.77
27729;BME280;15126;42.186;24.340;2023-01-27T01:05:41;98552.25;;;2.38;99.11
27729;BME280;15126;42.186;24.340;2023-01-27T01:08:08;98555.78;;;2.38;98.82
27729;BME280;15126;42.186;24.340;2023-01-27T01:10:36;98558.91;;;2.40;98.62
27729;BME280;15126;42.186;24.340;2023-01-27T01:13:03;98556.56;;;2.32;98.86
27729;BME280;15126;42.186;24.340;2023-01-27T01:15:34;98584.09;;;2.39;98.63
27729;BME280;15126;42.186;24.340;2023-01-27T01:18:02;98596.66;;;2.29;98.37
27729;BME280;15126;42.186;24.340;2023-01-27T01:20:29;98591.94;;;2.30;99.39
27729;BME280;15126;42.186;24.340;2023-01-27T01:22:56;98571.09;;;2.29;98.89
27729;BME280;15126;42.186;24.340;2023-01-27T01:25:23;98565.63;;;2.25;99.40
27729;BME280;15126;42.186;24.340;2023-01-27T01:27:50;98558.53;;;2.10;99.93
27729;BME280;15126;42.186;24.340;2023-01-27T01:30:17;98556.19;;;1.98;100.00
27729;BME280;15126;42.186;24.340;2023-01-27T01:32:43;98545.19;;;2.02;100.00
27729;BME280;15126;42.186;24.340;2023-01-27T01:35:12;98525.56;;;2.03;100.00
27729;BME280;15126;42.186;24.340;2023-01-27T01:37:39;98509.03;;;2.07;100.00
27729;BME280;15126;42.186;24.340;2023-01-27T01:40:07;98513.34;;;2.15;100.00
27729;BME280;15126;42.186;24.340;2023-01-27T01:42:53;98522.81;;;2.17;100.00
27729;BME280;15126;42.186;24.340;2023-01-27T01:45:45;98519.25;;;2.10;100.00
27729;BME280;15126;42.186;24.340;2023-01-27T01:48:15;98517.69;;;2.12;100.00
27729;BME280;15126;42.186;24.340;2023-01-27T01:50:48;98545.94;;;2.09;100.00
27729;BME280;15126;42.186;24.340;2023-01-27T01:53:17;98561.69;;;2.05;100.00
27729;BME280;15126;42.186;24.340;2023-01-27T01:55:45;98560.09;;;2.04;100.00
27729;BME280;15126;42.186;24.340;2023-01-27T01:58:13;98539.69;;;2.05;100.00
27729;BME280;15126;42.186;24.340;2023-01-27T02:00:40;98538.91;;;2.08;100.00
27729;BME280;15126;42.186;24.340;2023-01-27T02:03:08;98537.31;;;2.11;100.00
27729;BME280;15126;42.186;24.340;2023-01-27T02:05:36;98537.34;;;2.14;100.00
27729;BME280;15126;42.186;24.340;2023-01-27T02:08:11;98550.66;;;2.12;100.00
27729;BME280;15126;42.186;24.340;2023-01-27T02:10:41;98569.53;;;2.14;100.00
27729;BME280;15126;42.186;24.340;2023-01-27T02:13:08;98560.09;;;2.18;100.00
27729;BME280;15126;42.186;24.340;2023-01-27T02:15:35;98524.75;;;2.10;100.00
27729;BME280;15126;42.186;24.340;2023-01-27T02:18:03;98516.91;;;2.22;100.00
27729;BME280;15126;42.186;24.340;2023-01-27T02:20:35;98494.09;;;2.29;100.00
27729;BME280;15126;42.186;24.340;2023-01-27T02:23:14;98460.69;;;2.23;100.00
27729;BME280;15126;42.186;24.340;2023-01-27T02:25:50;98446.19;;;2.16;100.00
27729;BME280;15126;42.186;24.340;2023-01-27T02:28:19;98446.56;;;2.25;100.00
27729;BME280;15126;42.186;24.340;2023-01-27T02:30:46;98453.25;;;2.27;100.00
27729;BME280;15126;42.186;24.340;2023-01-27T02:33:13;98443.41;;;2.23;100.00
27729;BME280;15126;42.186;24.340;2023-01-27T02:35:44;98465.03;;;2.24;100.00
27729;BME280;15126;42.186;24.340;2023-01-27T02:38:14;98465.81;;;2.25;100.00
27729;BME280;15126;42.186;24.340;2023-01-27T02:40:42;98469.34;;;2.25;100.00
27729;BME280;15126;42.186;24.340;2023-01-27T02:43:10;98489.81;;;2.17;100.00
27729;BME280;15126;42.186;24.340;2023-01-27T02:45:37;98507.47;;;2.16;100.00
27729;BME280;15126;42.186;24.340;2023-01-27T02:48:04;98501.56;;;2.21;100.00
27729;BME280;15126;42.186;24.340;2023-01-27T02:50:31;98478.38;;;2.26;100.00
27729;BME280;15126;42.186;24.340;2023-01-27T02:52:58;98451.66;;;2.26;100.00
27729;BME280;15126;42.186;24.340;2023-01-27T02:55:25;98454.78;;;2.28;100.00
27729;BME280;15126;42.186;24.340;2023-01-27T02:57:51;98453.25;;;2.27;100.00
27729;BME280;15126;42.186;24.340;2023-01-27T03:00:20;98432.00;;;2.31;100.00
27729;BME280;15126;42.186;24.340;2023-01-27T03:02:46;98424.16;;;2.33;100.00
27729;BME280;15126;42.186;24.340;2023-01-27T03:05:13;98425.31;;;2.36;100.00
27729;BME280;15126;42.186;24.340;2023-01-27T03:07:40;98444.97;;;2.34;100.00
27729;BME280;15126;42.186;24.340;2023-01-27T03:10:08;98453.25;;;2.31;100.00
27729;BME280;15126;42.186;24.340;2023-01-27T03:12:35;98454.78;;;2.35;100.00
27729;BME280;15126;42.186;24.340;2023-01-27T03:15:05;98452.41;;;2.34;100.00
27729;BME280;15126;42.186;24.340;2023-01-27T03:17:51;98472.06;;;2.39;100.00
27729;BME280;15126;42.186;24.340;2023-01-27T03:20:38;98449.28;;;2.35;100.00
27729;BME280;15126;42.186;24.340;2023-01-27T03:23:05;98446.50;;;2.46;99.59
27729;BME280;15126;42.186;24.340;2023-01-27T03:25:31;98434.31;;;2.47;99.37
27729;BME280;15126;42.186;24.340;2023-01-27T03:27:58;98441.41;;;2.45;100.00
27729;BME280;15126;42.186;24.340;2023-01-27T03:30:26;98444.53;;;2.47;99.97
27729;BME280;15126;42.186;24.340;2023-01-27T03:32:54;98451.59;;;2.51;99.47
27729;BME280;15126;42.186;24.340;2023-01-27T03:35:21;98459.47;;;2.46;99.92
27729;BME280;15126;42.186;24.340;2023-01-27T03:37:48;98455.50;;;2.54;99.96
27729;BME280;15126;42.186;24.340;2023-01-27T03:40:33;98447.63;;;2.56;99.44
27729;BME280;15126;42.186;24.340;2023-01-27T03:43:18;98455.50;;;2.61;99.48
27729;BME280;15126;42.186;24.340;2023-01-27T03:46:02;98448.81;;;2.62;99.06
27729;BME280;15126;42.186;24.340;2023-01-27T03:48:46;98446.41;;;2.67;98.87
27729;BME280;15126;42.186;24.340;2023-01-27T03:51:15;98438.16;;;2.67;99.08
27729;BME280;15126;42.186;24.340;2023-01-27T03:53:42;98444.47;;;2.68;98.46
27729;BME280;15126;42.186;24.340;2023-01-27T03:56:09;98449.56;;;2.69;98.55
27729;BME280;15126;42.186;24.340;2023-01-27T03:58:37;98450.38;;;2.63;98.82
27729;BME280;15126;42.186;24.340;2023-01-27T04:01:05;98448.41;;;2.63;98.56
27729;BME280;15126;42.186;24.340;2023-01-27T04:03:34;98444.88;;;2.59;98.72
27729;BME280;15126;42.186;24.340;2023-01-27T04:06:22;98444.88;;;2.56;99.33
27729;BME280;15126;42.186;24.340;2023-01-27T04:09:08;98457.06;;;2.62;99.34
27729;BME280;15126;42.186;24.340;2023-01-27T04:11:35;98460.59;;;2.66;99.33
27729;BME280;15126;42.186;24.340;2023-01-27T04:14:20;98455.09;;;2.62;98.78
27729;BME280;15126;42.186;24.340;2023-01-27T04:16:47;98458.63;;;2.66;98.77
27729;BME280;15126;42.186;24.340;2023-01-27T04:19:14;98462.50;;;2.76;98.87
27729;BME280;15126;42.186;24.340;2023-01-27T04:21:42;98457.00;;;2.76;98.46
27729;BME280;15126;42.186;24.340;2023-01-27T04:24:11;98430.75;;;2.61;98.69
27729;BME280;15126;42.186;24.340;2023-01-27T04:26:47;98438.91;;;2.75;98.83
27729;BME280;15126;42.186;24.340;2023-01-27T04:29:15;98429.50;;;2.72;98.51
27729;BME280;15126;42.186;24.340;2023-01-27T04:31:42;98443.63;;;2.78;98.96
27729;BME280;15126;42.186;24.340;2023-01-27T04:34:09;98438.91;;;2.78;98.35
27729;BME280;15126;42.186;24.340;2023-01-27T04:36:36;98431.81;;;2.81;98.64
27729;BME280;15126;42.186;24.340;2023-01-27T04:39:05;98435.00;;;2.76;98.02
27729;BME280;15126;42.186;24.340;2023-01-27T04:41:32;98431.81;;;2.77;98.12
27729;BME280;15126;42.186;24.340;2023-01-27T04:43:59;98426.31;;;2.77;98.43
27729;BME280;15126;42.186;24.340;2023-01-27T04:46:25;98420.00;;;2.80;97.75
27729;BME280;15126;42.186;24.340;2023-01-27T04:48:52;98400.38;;;2.75;97.84
27729;BME280;15126;42.186;24.340;2023-01-27T04:51:19;98401.22;;;2.68;98.29
27729;BME280;15126;42.186;24.340;2023-01-27T04:53:46;98385.53;;;2.58;97.84
27729;BME280;15126;42.186;24.340;2023-01-27T04:56:21;98406.78;;;2.54;98.55
27729;BME280;15126;42.186;24.340;2023-01-27T04:58:49;98434.19;;;2.72;98.70
27729;BME280;15126;42.186;24.340;2023-01-27T05:01:16;98419.25;;;2.76;98.47
27729;BME280;15126;42.186;24.340;2023-01-27T05:03:43;98416.09;;;2.78;98.86
27729;BME280;15126;42.186;24.340;2023-01-27T05:06:10;98397.28;;;2.66;97.97
27729;BME280;15126;42.186;24.340;2023-01-27T05:08:37;98429.91;;;2.74;98.25
27729;BME280;15126;42.186;24.340;2023-01-27T05:11:04;98433.41;;;2.78;98.24
27729;BME280;15126;42.186;24.340;2023-01-27T05:13:33;98437.31;;;2.81;98.22
27729;BME280;15126;42.186;24.340;2023-01-27T05:16:07;98436.53;;;2.84;98.26
27729;BME280;15126;42.186;24.340;2023-01-27T05:18:34;98416.09;;;2.78;97.77
27729;BME280;15126;42.186;24.340;2023-01-27T05:21:02;98419.25;;;2.80;98.04
27729;BME280;15126;42.186;24.340;2023-01-27T05:23:29;98430.63;;;2.82;97.72
27729;BME280;15126;42.186;24.340;2023-01-27T05:26:04;98437.31;;;2.84;97.94
27729;BME280;15126;42.186;24.340;2023-01-27T05:28:32;98425.56;;;2.73;97.69
27729;BME280;15126;42.186;24.340;2023-01-27T05:31:01;98437.31;;;2.84;97.39
27729;BME280;15126;42.186;24.340;2023-01-27T05:33:28;98444.78;;;2.87;96.95
27729;BME280;15126;42.186;24.340;2023-01-27T05:35:57;98440.06;;;2.88;97.06
27729;BME280;15126;42.186;24.340;2023-01-27T05:38:24;98446.75;;;2.83;97.31
27729;BME280;15126;42.186;24.340;2023-01-27T05:40:54;98446.78;;;2.80;97.15
27729;BME280;15126;42.186;24.340;2023-01-27T05:43:21;98455.03;;;2.80;97.71
27729;BME280;15126;42.186;24.340;2023-01-27T05:45:49;98449.53;;;2.80;97.87
27729;BME280;15126;42.186;24.340;2023-01-27T05:48:15;98449.13;;;2.78;97.35
27729;BME280;15126;42.186;24.340;2023-01-27T05:50:42;98435.72;;;2.83;97.62
27729;BME280;15126;42.186;24.340;2023-01-27T05:53:09;98433.75;;;2.84;97.40
27729;BME280;15126;42.186;24.340;2023-01-27T05:55:36;98432.19;;;2.83;98.18
27729;BME280;15126;42.186;24.340;2023-01-27T05:58:02;98431.00;;;2.84;97.82
27729;BME280;15126;42.186;24.340;2023-01-27T06:00:29;98428.63;;;2.86;97.79
27729;BME280;15126;42.186;24.340;2023-01-27T06:02:58;98425.47;;;2.91;97.25
27729;BME280;15126;42.186;24.340;2023-01-27T06:05:25;98414.44;;;2.91;97.23
27729;BME280;15126;42.186;24.340;2023-01-27T06:07:52;98423.06;;;2.96;97.51
27729;BME280;15126;42.186;24.340;2023-01-27T06:10:19;98436.44;;;3.02;97.33
27729;BME280;15126;42.186;24.340;2023-01-27T06:12:45;98429.34;;;3.00;96.87
27729;BME280;15126;42.186;24.340;2023-01-27T06:15:12;98441.53;;;3.07;97.13
27729;BME280;15126;42.186;24.340;2023-01-27T06:17:39;98433.25;;;3.07;96.75
27729;BME280;15126;42.186;24.340;2023-01-27T06:20:09;98436.38;;;3.12;96.58
27729;BME280;15126;42.186;24.340;2023-01-27T06:22:36;98435.97;;;3.10;97.17
27729;BME280;15126;42.186;24.340;2023-01-27T06:25:03;98434.00;;;3.14;96.83
27729;BME280;15126;42.186;24.340;2023-01-27T06:27:30;98433.94;;;3.21;96.83
27729;BME280;15126;42.186;24.340;2023-01-27T06:29:56;98430.00;;;3.22;96.64
27729;BME280;15126;42.186;24.340;2023-01-27T06:32:23;98422.13;;;3.21;96.98
27729;BME280;15126;42.186;24.340;2023-01-27T06:34:50;98418.97;;;3.26;97.52
27729;BME280;15126;42.186;24.340;2023-01-27T06:37:18;98426.03;;;3.30;96.85
27729;BME280;15126;42.186;24.340;2023-01-27T06:39:45;98433.84;;;3.35;96.57
27729;BME280;15126;42.186;24.340;2023-01-27T06:42:11;98433.84;;;3.39;96.17
27729;BME280;15126;42.186;24.340;2023-01-27T06:44:38;98435.00;;;3.41;96.78
27729;BME280;15126;42.186;24.340;2023-01-27T06:47:05;98442.84;;;3.43;96.13
27729;BME280;15126;42.186;24.340;2023-01-27T06:49:32;98446.41;;;3.43;95.98
27729;BME280;15126;42.186;24.340;2023-01-27T06:51:58;98454.63;;;3.50;95.70
27729;BME280;15126;42.186;24.340;2023-01-27T06:54:27;98449.50;;;3.52;95.69
27729;BME280;15126;42.186;24.340;2023-01-27T06:56:53;98440.00;;;3.53;96.20
27729;BME280;15126;42.186;24.340;2023-01-27T06:59:20;98445.88;;;3.59;95.56
27729;BME280;15126;42.186;24.340;2023-01-27T07:01:53;98439.19;;;3.60;96.18
27729;BME280;15126;42.186;24.340;2023-01-27T07:04:20;98454.13;;;3.66;95.84
27729;BME280;15126;42.186;24.340;2023-01-27T07:06:47;98458.41;;;3.71;95.40
27729;BME280;15126;42.186;24.340;2023-01-27T07:09:14;98463.09;;;3.74;95.37
27729;BME280;15126;42.186;24.340;2023-01-27T07:11:42;98459.53;;;3.77;95.62
27729;BME280;15126;42.186;24.340;2023-01-27T07:14:09;98457.94;;;3.79;95.20
27729;BME280;15126;42.186;24.340;2023-01-27T07:16:36;98456.38;;;3.78;94.60
27729;BME280;15126;42.186;24.340;2023-01-27T07:19:03;98440.59;;;3.82;94.90
27729;BME280;15126;42.186;24.340;2023-01-27T07:21:30;98438.56;;;3.86;94.69
27729;BME280;15126;42.186;24.340;2023-01-27T07:23:56;98435.75;;;3.93;94.53
27729;BME280;15126;42.186;24.340;2023-01-27T07:26:23;98435.72;;;3.97;94.42
27729;BME280;15126;42.186;24.340;2023-01-27T07:28:51;98443.16;;;4.00;94.29
27729;BME280;15126;42.186;24.340;2023-01-27T07:31:18;98442.00;;;4.01;94.31
27729;BME280;15126;42.186;24.340;2023-01-27T07:33:45;98442.75;;;4.05;93.61
27729;BME280;15126;42.186;24.340;2023-01-27T07:36:12;98438.78;;;4.06;93.50
27729;BME280;15126;42.186;24.340;2023-01-27T07:38:39;98440.38;;;4.07;93.31
27729;BME280;15126;42.186;24.340;2023-01-27T07:41:06;98447.09;;;4.02;92.99
27729;BME280;15126;42.186;24.340;2023-01-27T07:43:33;98445.94;;;4.00;93.80
27729;BME280;15126;42.186;24.340;2023-01-27T07:46:01;98440.81;;;4.02;93.29
27729;BME280;15126;42.186;24.340;2023-01-27T07:48:28;98445.88;;;4.07;93.02
27729;BME280;15126;42.186;24.340;2023-01-27T07:50:55;98452.56;;;4.09;92.89
27729;BME280;15126;42.186;24.340;2023-01-27T07:53:21;98458.06;;;4.13;93.15
27729;BME280;15126;42.186;24.340;2023-01-27T07:55:48;98458.41;;;4.15;93.14
27729;BME280;15126;42.186;24.340;2023-01-27T07:58:17;98456.81;;;4.17;92.89
27729;BME280;15126;42.186;24.340;2023-01-27T08:00:44;98444.56;;;4.18;92.69
27729;BME280;15126;42.186;24.340;2023-01-27T08:03:20;98448.44;;;4.25;92.67
27729;BME280;15126;42.186;24.340;2023-01-27T08:05:47;98453.16;;;4.28;92.10
27729;BME280;15126;42.186;24.340;2023-01-27T08:08:14;98451.16;;;4.32;91.54
27729;BME280;15126;42.186;24.340;2023-01-27T08:10:41;98435.81;;;4.27;91.93
27729;BME280;15126;42.186;24.340;2023-01-27T08:13:11;98446.34;;;4.39;91.36
27729;BME280;15126;42.186;24.340;2023-01-27T08:15:38;98430.59;;;4.36;90.99
27729;BME280;15126;42.186;24.340;2023-01-27T08:18:05;98435.22;;;4.46;91.65
27729;BME280;15126;42.186;24.340;2023-01-27T08:20:33;98447.41;;;4.49;91.34
27729;BME280;15126;42.186;24.340;2023-01-27T08:23:00;98448.19;;;4.49;91.47
27729;BME280;15126;42.186;24.340;2023-01-27T08:25:26;98441.47;;;4.54;91.51
27729;BME280;15126;42.186;24.340;2023-01-27T08:27:54;98438.28;;;4.55;91.24
27729;BME280;15126;42.186;24.340;2023-01-27T08:30:21;98441.38;;;4.61;90.93
27729;BME280;15126;42.186;24.340;2023-01-27T08:32:49;98430.69;;;4.63;90.86
27729;BME280;15126;42.186;24.340;2023-01-27T08:35:16;98427.84;;;4.70;91.36
27729;BME280;15126;42.186;24.340;2023-01-27T08:37:45;98420.72;;;4.72;91.00
27729;BME280;15126;42.186;24.340;2023-01-27T08:40:12;98421.72;;;4.86;91.72
27729;BME280;15126;42.186;24.340;2023-01-27T08:42:39;98425.13;;;4.97;91.90
27729;BME280;15126;42.186;24.340;2023-01-27T08:45:07;98431.78;;;5.03;91.34
27729;BME280;15126;42.186;24.340;2023-01-27T08:47:34;98432.84;;;5.09;90.85
27729;BME280;15126;42.186;24.340;2023-01-27T08:50:01;98432.94;;;5.05;89.98
27729;BME280;15126;42.186;24.340;2023-01-27T08:52:27;98423.41;;;5.06;90.01
27729;BME280;15126;42.186;24.340;2023-01-27T08:54:56;98429.72;;;5.07;89.89
27729;BME280;15126;42.186;24.340;2023-01-27T08:57:23;98424.94;;;5.11;88.78
27729;BME280;15126;42.186;24.340;2023-01-27T08:59:50;98420.16;;;5.15;89.78
27729;BME280;15126;42.186;24.340;2023-01-27T09:02:17;98413.16;;;5.07;90.18
27729;BME280;15126;42.186;24.340;2023-01-27T09:04:46;98415.38;;;5.19;90.55
27729;BME280;15126;42.186;24.340;2023-01-27T09:07:13;98408.22;;;5.21;90.06
27729;BME280;15126;42.186;24.340;2023-01-27T09:09:40;98403.41;;;5.25;90.51
27729;BME280;15126;42.186;24.340;2023-01-27T09:12:08;98397.00;;;5.32;89.98
27729;BME280;15126;42.186;24.340;2023-01-27T09:14:35;98408.72;;;5.39;89.53
27729;BME280;15126;42.186;24.340;2023-01-27T09:17:02;98417.34;;;5.45;89.48
27729;BME280;15126;42.186;24.340;2023-01-27T09:19:29;98407.78;;;5.50;89.20
27729;BME280;15126;42.186;24.340;2023-01-27T09:21:56;98417.16;;;5.56;89.34
27729;BME280;15126;42.186;24.340;2023-01-27T09:24:23;98406.84;;;5.60;88.78
27729;BME280;15126;42.186;24.340;2023-01-27T09:26:50;98398.13;;;5.61;89.00
27729;BME280;15126;42.186;24.340;2023-01-27T09:29:18;98406.28;;;5.68;88.74
27729;BME280;15126;42.186;24.340;2023-01-27T09:31:45;98394.69;;;5.77;89.15
27729;BME280;15126;42.186;24.340;2023-01-27T09:34:11;98389.44;;;5.82;88.55
27729;BME280;15126;42.186;24.340;2023-01-27T09:36:43;98382.63;;;5.90;88.48
27729;BME280;15126;42.186;24.340;2023-01-27T09:39:13;98379.44;;;5.92;87.63
27729;BME280;15126;42.186;24.340;2023-01-27T09:41:56;98362.75;;;5.95;87.23
27729;BME280;15126;42.186;24.340;2023-01-27T09:44:38;98370.41;;;5.88;87.53
27729;BME280;15126;42.186;24.340;2023-01-27T09:47:30;98368.91;;;5.83;87.71
27729;BME280;15126;42.186;24.340;2023-01-27T09:50:26;98371.66;;;5.83;87.66
27729;BME280;15126;42.186;24.340;2023-01-27T09:53:13;98364.56;;;5.82;87.57
27729;BME280;15126;42.186;24.340;2023-01-27T09:55:44;98357.19;;;5.76;88.09
27729;BME280;15126;42.186;24.340;2023-01-27T09:58:24;98362.03;;;5.68;87.97
27729;BME280;15126;42.186;24.340;2023-01-27T10:01:03;98356.50;;;5.68;88.06
27729;BME280;15126;42.186;24.340;2023-01-27T10:03:49;98358.50;;;5.68;89.05
27729;BME280;15126;42.186;24.340;2023-01-27T10:06:56;98356.47;;;5.49;89.71
27729;BME280;15126;42.186;24.340;2023-01-27T10:09:38;98363.19;;;5.48;89.93
27729;BME280;15126;42.186;24.340;2023-01-27T10:12:23;98363.63;;;5.46;90.11
27729;BME280;15126;42.186;24.340;2023-01-27T10:14:58;98362.75;;;5.49;90.26
27729;BME280;15126;42.186;24.340;2023-01-27T10:17:37;98347.72;;;5.50;90.52
27729;BME280;15126;42.186;24.340;2023-01-27T10:20:18;98346.16;;;5.49;90.75
27729;BME280;15126;42.186;24.340;2023-01-27T10:22:54;98341.81;;;5.52;90.76
27729;BME280;15126;42.186;24.340;2023-01-27T10:25:31;98345.31;;;5.52;90.77
27729;BME280;15126;42.186;24.340;2023-01-27T10:28:07;98347.25;;;5.55;90.72
27729;BME280;15126;42.186;24.340;2023-01-27T10:30:37;98343.28;;;5.56;90.53
27729;BME280;15126;42.186;24.340;2023-01-27T10:33:15;98343.28;;;5.56;90.08
27729;BME280;15126;42.186;24.340;2023-01-27T10:35:50;98348.34;;;5.61;90.54
27729;BME280;15126;42.186;24.340;2023-01-27T10:38:25;98332.59;;;5.58;90.04
27729;BME280;15126;42.186;24.340;2023-01-27T10:41:05;98328.81;;;5.49;90.39
27729;BME280;15126;42.186;24.340;2023-01-27T10:43:44;98324.53;;;5.44;90.70
27729;BME280;15126;42.186;24.340;2023-01-27T10:46:17;98316.13;;;5.28;90.71
27729;BME280;15126;42.186;24.340;2023-01-27T10:48:49;98321.09;;;5.36;90.82
27729;BME280;15126;42.186;24.340;2023-01-27T10:51:20;98311.25;;;5.35;91.61
27729;BME280;15126;42.186;24.340;2023-01-27T10:53:54;98299.03;;;5.33;91.69
27729;BME280;15126;42.186;24.340;2023-01-27T10:56:30;98297.31;;;5.43;92.07
27729;BME280;15126;42.186;24.340;2023-01-27T10:59:02;98294.50;;;5.46;92.38
27729;BME280;15126;42.186;24.340;2023-01-27T11:01:33;98267.44;;;5.34;92.68
27729;BME280;15126;42.186;24.340;2023-01-27T11:04:07;98288.88;;;5.50;92.21
27729;BME280;15126;42.186;24.340;2023-01-27T11:06:37;98285.63;;;5.55;92.03
27729;BME280;15126;42.186;24.340;2023-01-27T11:09:12;98290.31;;;5.58;92.22
27729;BME280;15126;42.186;24.340;2023-01-27T11:11:42;98284.50;;;5.52;91.90
27729;BME280;15126;42.186;24.340;2023-01-27T11:14:15;98281.19;;;5.61;91.93
27729;BME280;15126;42.186;24.340;2023-01-27T11:16:45;98274.03;;;5.63;91.65
27729;BME280;15126;42.186;24.340;2023-01-27T11:19:21;98279.94;;;5.65;91.27
27729;BME280;15126;42.186;24.340;2023-01-27T11:21:50;98272.41;;;5.66;91.11
27729;BME280;15126;42.186;24.340;2023-01-27T11:24:40;98281.47;;;5.66;91.20
27729;BME280;15126;42.186;24.340;2023-01-27T11:27:19;98267.06;;;5.55;91.23
27729;BME280;15126;42.186;24.340;2023-01-27T11:29:53;98256.84;;;5.52;90.77
27729;BME280;15126;42.186;24.340;2023-01-27T11:32:32;98256.66;;;5.63;91.21
27729;BME280;15126;42.186;24.340;2023-01-27T11:35:05;98259.84;;;5.61;90.26
27729;BME280;15126;42.186;24.340;2023-01-27T11:37:35;98252.94;;;5.50;90.65
27729;BME280;15126;42.186;24.340;2023-01-27T11:40:05;98270.75;;;5.49;91.02
27729;BME280;15126;42.186;24.340;2023-01-27T11:42:38;98265.22;;;5.49;90.60
27729;BME280;15126;42.186;24.340;2023-01-27T11:45:10;98259.31;;;5.47;90.47
27729;BME280;15126;42.186;24.340;2023-01-27T11:47:40;98265.41;;;5.38;90.95
27729;BME280;15126;42.186;24.340;2023-01-27T11:50:13;98267.41;;;5.37;91.28
27729;BME280;15126;42.186;24.340;2023-01-27T11:52:42;98274.78;;;5.44;91.72
27729;BME280;15126;42.186;24.340;2023-01-27T11:55:16;98277.47;;;5.48;92.00
27729;BME280;15126;42.186;24.340;2023-01-27T11:57:46;98269.53;;;5.50;91.65
27729;BME280;15126;42.186;24.340;2023-01-27T12:00:20;98274.16;;;5.56;91.46
27729;BME280;15126;42.186;24.340;2023-01-27T12:02:52;98274.78;;;5.44;90.99
27729;BME280;15126;42.186;24.340;2023-01-27T12:05:27;98270.38;;;5.47;90.42
27729;BME280;15126;42.186;24.340;2023-01-27T12:07:57;98266.97;;;5.39;91.02
27729;BME280;15126;42.186;24.340;2023-01-27T12:10:28;98264.94;;;5.43;91.20
27729;BME280;15126;42.186;24.340;2023-01-27T12:12:57;98263.72;;;5.44;91.70
27729;BME280;15126;42.186;24.340;2023-01-27T12:15:25;98259.25;;;5.50;91.32
27729;BME280;15126;42.186;24.340;2023-01-27T12:17:54;98258.91;;;5.48;91.96
27729;BME280;15126;42.186;24.340;2023-01-27T12:20:30;98247.94;;;5.64;91.84
27729;BME280;15126;42.186;24.340;2023-01-27T12:23:00;98252.75;;;5.60;90.83
27729;BME280;15126;42.186;24.340;2023-01-27T12:25:30;98248.66;;;5.68;90.93
27729;BME280;15126;42.186;24.340;2023-01-27T12:28:01;98253.47;;;5.64;90.65
27729;BME280;15126;42.186;24.340;2023-01-27T12:30:31;98251.78;;;5.70;90.57
27729;BME280;15126;42.186;24.340;2023-01-27T12:32:59;98230.56;;;5.64;90.89
27729;BME280;15126;42.186;24.340;2023-01-27T12:35:37;98251.63;;;5.77;90.88
27729;BME280;15126;42.186;24.340;2023-01-27T12:38:06;98244.25;;;5.71;91.27
27729;BME280;15126;42.186;24.340;2023-01-27T12:40:41;98250.66;;;5.68;90.42
27729;BME280;15126;42.186;24.340;2023-01-27T12:43:11;98238.88;;;5.64;91.23
27729;BME280;15126;42.186;24.340;2023-01-27T12:45:39;98240.00;;;5.66;91.37
27729;BME280;15126;42.186;24.340;2023-01-27T12:48:18;98239.50;;;5.71;91.00
27729;BME280;15126;42.186;24.340;2023-01-27T12:50:55;98196.53;;;5.47;90.92
27729;BME280;15126;42.186;24.340;2023-01-27T12:53:23;98224.34;;;5.60;91.11
27729;BME280;15126;42.186;24.340;2023-01-27T12:55:56;98230.50;;;5.67;90.88
27729;BME280;15126;42.186;24.340;2023-01-27T12:58:35;98226.53;;;5.68;91.24
27729;BME280;15126;42.186;24.340;2023-01-27T13:01:05;98230.41;;;5.71;91.07
27729;BME280;15126;42.186;24.340;2023-01-27T13:03:37;98225.47;;;5.62;90.96
27729;BME280;15126;42.186;24.340;2023-01-27T13:06:07;98228.59;;;5.64;90.51
27729;BME280;15126;42.186;24.340;2023-01-27T13:08:40;98225.09;;;5.60;90.99
27729;BME280;15126;42.186;24.340;2023-01-27T13:11:07;98234.97;;;5.61;90.87
27729;BME280;15126;42.186;24.340;2023-01-27T13:13:34;98233.88;;;5.55;90.91